Ulusoy-15 — TCUP4 — position and weather

sailwx.info

Track history (hours):
 
Tides and Currents Weather Stations Pressure Air Temp Water Temp Dewpoint Dewpoint Depression Visibility Wind Speed Wind Dir Waves Ship Positions

Ulusoy-15

Last reported at 2018-Aug-20 13:24 UTC. Time now 2018-Aug-21 03:53 UTC.
Position N 45°38' E 013°46'.

Length 208 m; draft 6.8 m.

Type: Cargo ship. MMSI: 271043165.

Date/timePositionNaut miles runAvg speedWind from/ knotsBaromVisibWave heightAir tempDewpointWater temp
2018-Aug-20 13:24N 45°38' E 013°46'0 0.0
2018-Aug-20 13:00N 45°38' E 013°46'0 0.0
2018-Aug-20 12:30N 45°38' E 013°46'0 0.2
2018-Aug-20 12:03N 45°38' E 013°46'0 3.5
2018-Aug-20 12:00N 45°38' E 013°45'4 7.3
2018-Aug-20 11:30N 45°39' E 013°40'816.5
2018-Aug-20 11:03N 45°35' E 013°31'116.8
2018-Aug-20 11:00N 45°34' E 013°30'816.6
2018-Aug-20 10:30N 45°29' E 013°21'716.5
2018-Aug-20 10:03N 45°23' E 013°14'116.6
2018-Aug-20 10:00N 45°23' E 013°14'816.4
2018-Aug-20 09:30N 45°15' E 013°15'816.8
2018-Aug-20 09:03N 45°07' E 013°18'116.7
2018-Aug-20 09:00N 45°06' E 013°18'816.8
2018-Aug-20 08:30N 44°58' E 013°22'716.6
2018-Aug-20 08:03N 44°52' E 013°27'116.7
2018-Aug-20 08:00N 44°51' E 013°27'816.7
2018-Aug-20 07:30N 44°44' E 013°34'716.8
2018-Aug-20 07:03N 44°38' E 013°39'117.0
2018-Aug-20 07:00N 44°37' E 013°40'1716.9
2018-Aug-20 06:02N 44°23' E 013°53'017.0
2018-Aug-20 06:00N 44°23' E 013°53'816.9
2018-Aug-20 05:30N 44°16' E 013°60'1017.0
2018-Aug-20 04:57N 44°08' E 014°07'317.2
2018-Aug-20 04:47N 44°06' E 014°10'517.2
2018-Aug-20 04:30N 44°02' E 014°14'63014.9
2018-Aug-18 10:13N 37°15' E 024°48'418.0
2018-Aug-18 10:01N 37°17' E 024°52'918.2
2018-Aug-18 09:30N 37°22' E 025°01'917.9
2018-Aug-18 09:01N 37°28' E 025°09'917.6
2018-Aug-18 08:31N 37°33' E 025°18'917.9
2018-Aug-18 08:00N 37°40' E 025°27'917.3
2018-Aug-18 07:30N 37°46' E 025°34'7 0.3
2018-Aug-17 04:57N 37°50' E 025°42'716.6
2018-Aug-17 04:30N 37°45' E 025°35'816.4
2018-Aug-17 04:00N 37°40' E 025°27'816.2
2018-Aug-17 03:31N 37°34' E 025°20'816.0
2018-Aug-17 03:00N 37°29' E 025°12'816.3
2018-Aug-17 02:29N 37°24' E 025°04'816.1
2018-Aug-17 02:01N 37°19' E 024°56'815.7
2018-Aug-17 01:30N 37°14' E 024°48'64914.6
2018-Aug-15 05:09N 44°14' E 013°56'216.1
2018-Aug-15 05:00N 44°15' E 013°54'1516.5
2018-Aug-15 04:05N 44°28' E 013°41'116.7
2018-Aug-15 04:00N 44°29' E 013°40'817.0
2018-Aug-15 03:31N 44°36' E 013°35'816.9
2018-Aug-15 03:00N 44°43' E 013°28'817.0
2018-Aug-15 02:30N 44°51' E 013°22'917.0
2018-Aug-15 02:00N 44°58' E 013°16'816.9
2018-Aug-15 01:30N 45°05' E 013°09'917.1
2018-Aug-15 01:00N 45°13' E 013°04'917.1
2018-Aug-15 00:30N 45°21' E 013°00'816.6
2018-Aug-15 00:00N 45°28' E 013°07'917.2
2018-Aug-14 23:31N 45°33' E 013°17'917.2
2018-Aug-14 23:00N 45°36' E 013°28'816.2
2018-Aug-14 22:30N 45°39' E 013°39'5 0.1
2018-Aug-13 12:37N 45°38' E 013°46'0 0.0
2018-Aug-13 12:22N 45°38' E 013°46'0 0.0
2018-Aug-13 11:58N 45°38' E 013°46'0 0.0
2018-Aug-13 11:29N 45°38' E 013°46'1 1.2
2018-Aug-13 11:00N 45°38' E 013°45'4 8.4
2018-Aug-13 10:30N 45°38' E 013°39'712.7
2018-Aug-13 10:00N 45°35' E 013°31'815.9
2018-Aug-13 09:31N 45°30' E 013°22'816.8
2018-Aug-13 09:01N 45°24' E 013°14'815.7
2018-Aug-13 08:30N 45°16' E 013°14'917.2
2018-Aug-13 08:01N 45°08' E 013°17'917.4
2018-Aug-13 07:31N 44°60' E 013°21'917.2
2018-Aug-13 07:01N 44°52' E 013°27'917.3
2018-Aug-13 06:30N 44°45' E 013°33'917.3
2018-Aug-13 06:00N 44°37' E 013°40'2517.3
2018-Aug-13 04:35N 44°17' E 013°59'117.5
2018-Aug-13 04:30N 44°16' E 014°00'64714.8
2018-Aug-11 08:49N 37°15' E 024°48'516.7
2018-Aug-11 08:30N 37°18' E 024°53'917.4
2018-Aug-11 08:01N 37°23' E 025°02'917.3
2018-Aug-11 07:30N 37°29' E 025°10'816.8
2018-Aug-11 07:01N 37°33' E 025°18'816.5
2018-Aug-11 06:30N 37°39' E 025°26'816.4
2018-Aug-11 06:01N 37°45' E 025°33'816.8
2018-Aug-11 05:31N 37°51' E 025°41'  
Track history (hours):
 
Tides and Currents Weather Stations Pressure Air Temp Water Temp Dewpoint Dewpoint Depression Visibility Wind Speed Wind Dir Waves Ship Positions

Ulusoy-15

Last reported at 2018-Aug-20 13:24 UTC. Time now 2018-Aug-21 03:53 UTC.
Position N 45°38' E 013°46'.

Length 208 m; draft 6.8 m.

Type: Cargo ship. MMSI: 271043165.

Date/timePositionNaut miles runAvg speedWind from/ knotsBaromVisibWave heightAir tempDewpointWater temp
2018-Aug-20 13:24N 45°38' E 013°46'0 0.0
2018-Aug-20 13:00N 45°38' E 013°46'0 0.0
2018-Aug-20 12:30N 45°38' E 013°46'0 0.2
2018-Aug-20 12:03N 45°38' E 013°46'0 3.5
2018-Aug-20 12:00N 45°38' E 013°45'4 7.3
2018-Aug-20 11:30N 45°39' E 013°40'816.5
2018-Aug-20 11:03N 45°35' E 013°31'116.8
2018-Aug-20 11:00N 45°34' E 013°30'816.6
2018-Aug-20 10:30N 45°29' E 013°21'716.5
2018-Aug-20 10:03N 45°23' E 013°14'116.6
2018-Aug-20 10:00N 45°23' E 013°14'816.4
2018-Aug-20 09:30N 45°15' E 013°15'816.8
2018-Aug-20 09:03N 45°07' E 013°18'116.7
2018-Aug-20 09:00N 45°06' E 013°18'816.8
2018-Aug-20 08:30N 44°58' E 013°22'716.6
2018-Aug-20 08:03N 44°52' E 013°27'116.7
2018-Aug-20 08:00N 44°51' E 013°27'816.7
2018-Aug-20 07:30N 44°44' E 013°34'716.8
2018-Aug-20 07:03N 44°38' E 013°39'117.0
2018-Aug-20 07:00N 44°37' E 013°40'1716.9
2018-Aug-20 06:02N 44°23' E 013°53'017.0
2018-Aug-20 06:00N 44°23' E 013°53'816.9
2018-Aug-20 05:30N 44°16' E 013°60'1017.0
2018-Aug-20 04:57N 44°08' E 014°07'317.2
2018-Aug-20 04:47N 44°06' E 014°10'517.2
2018-Aug-20 04:30N 44°02' E 014°14'63014.9
2018-Aug-18 10:13N 37°15' E 024°48'418.0
2018-Aug-18 10:01N 37°17' E 024°52'918.2
2018-Aug-18 09:30N 37°22' E 025°01'917.9
2018-Aug-18 09:01N 37°28' E 025°09'917.6
2018-Aug-18 08:31N 37°33' E 025°18'917.9
2018-Aug-18 08:00N 37°40' E 025°27'917.3
2018-Aug-18 07:30N 37°46' E 025°34'7 0.3
2018-Aug-17 04:57N 37°50' E 025°42'716.6
2018-Aug-17 04:30N 37°45' E 025°35'816.4
2018-Aug-17 04:00N 37°40' E 025°27'816.2
2018-Aug-17 03:31N 37°34' E 025°20'816.0
2018-Aug-17 03:00N 37°29' E 025°12'816.3
2018-Aug-17 02:29N 37°24' E 025°04'816.1
2018-Aug-17 02:01N 37°19' E 024°56'815.7
2018-Aug-17 01:30N 37°14' E 024°48'64914.6
2018-Aug-15 05:09N 44°14' E 013°56'216.1
2018-Aug-15 05:00N 44°15' E 013°54'1516.5
2018-Aug-15 04:05N 44°28' E 013°41'116.7
2018-Aug-15 04:00N 44°29' E 013°40'817.0
2018-Aug-15 03:31N 44°36' E 013°35'816.9
2018-Aug-15 03:00N 44°43' E 013°28'817.0
2018-Aug-15 02:30N 44°51' E 013°22'917.0
2018-Aug-15 02:00N 44°58' E 013°16'816.9
2018-Aug-15 01:30N 45°05' E 013°09'917.1
2018-Aug-15 01:00N 45°13' E 013°04'917.1
2018-Aug-15 00:30N 45°21' E 013°00'816.6
2018-Aug-15 00:00N 45°28' E 013°07'917.2
2018-Aug-14 23:31N 45°33' E 013°17'917.2
2018-Aug-14 23:00N 45°36' E 013°28'816.2
2018-Aug-14 22:30N 45°39' E 013°39'5 0.1
2018-Aug-13 12:37N 45°38' E 013°46'0 0.0
2018-Aug-13 12:22N 45°38' E 013°46'0 0.0
2018-Aug-13 11:58N 45°38' E 013°46'0 0.0
2018-Aug-13 11:29N 45°38' E 013°46'1 1.2
2018-Aug-13 11:00N 45°38' E 013°45'4 8.4
2018-Aug-13 10:30N 45°38' E 013°39'712.7
2018-Aug-13 10:00N 45°35' E 013°31'815.9
2018-Aug-13 09:31N 45°30' E 013°22'816.8
2018-Aug-13 09:01N 45°24' E 013°14'815.7
2018-Aug-13 08:30N 45°16' E 013°14'917.2
2018-Aug-13 08:01N 45°08' E 013°17'917.4
2018-Aug-13 07:31N 44°60' E 013°21'917.2
2018-Aug-13 07:01N 44°52' E 013°27'917.3
2018-Aug-13 06:30N 44°45' E 013°33'917.3
2018-Aug-13 06:00N 44°37' E 013°40'2517.3
2018-Aug-13 04:35N 44°17' E 013°59'117.5
2018-Aug-13 04:30N 44°16' E 014°00'64714.8
2018-Aug-11 08:49N 37°15' E 024°48'516.7
2018-Aug-11 08:30N 37°18' E 024°53'917.4
2018-Aug-11 08:01N 37°23' E 025°02'917.3
2018-Aug-11 07:30N 37°29' E 025°10'816.8
2018-Aug-11 07:01N 37°33' E 025°18'816.5
2018-Aug-11 06:30N 37°39' E 025°26'816.4
2018-Aug-11 06:01N 37°45' E 025°33'816.8
2018-Aug-11 05:31N 37°51' E 025°41'  

Dump ship's entire track history